Observations de surface / UK / EGKB

Québec | Canada | États-Unis | France | UK | Europe | Ailleurs

Affichage: Infos & localisation pour EGKB | Aide pour décoder les METARs

EGKB BIGGIN HILL -- UK
Raw surface observations for station EGKB
EGKB 211720Z 14003KT CAVOK M01/M05 Q1025 =
EGKB 211650Z 14004KT CAVOK M00/M05 Q1025=
EGKB 211620Z 14003KT CAVOK 00/M05 Q1025=
EGKB 211550Z 14005KT 100V170 CAVOK 01/M05 Q1025=
EGKB 211520Z 12006KT 100V170 CAVOK 02/M06 Q1025=
EGKB 211450Z 13006KT 100V160 CAVOK 02/M06 Q1025=
EGKB 211420Z 13006KT 100V180 CAVOK 03/M06 Q1025=
EGKB 211350Z 12006KT 080V150 CAVOK 03/M06 Q1025=
EGKB 211320Z 10005KT 050V170 CAVOK 03/M06 Q1026=
EGKB 211250Z 09007KT 060V140 CAVOK 03/M06 Q1026=
EGKB 211220Z 11008KT CAVOK 03/M06 Q1026=
EGKB 211150Z 10009KT 060V130 CAVOK 03/M06 Q1027=
EGKB 211120Z 09007KT 060V120 CAVOK 02/M06 Q1027=
EGKB 211050Z 10006KT 070V130 CAVOK 02/M04 Q1027=
EGKB 211020Z 11007KT 070V140 CAVOK 01/M06 Q1028=
EGKB 210950Z 11007KT 080V140 CAVOK 01/M06 Q1028=
EGKB 210920Z 12003KT CAVOK 00/M06 Q1028=
EGKB 210850Z 14005KT CAVOK M01/M07 Q1027=
EGKB 210820Z VRB03KT CAVOK M01/M07 Q1028=
EGKB 202020Z 10009KT CAVOK 02/M04 Q1030=
EGKB 201950Z 09007KT CAVOK 01/M03 Q1031=
EGKB 201920Z 09005KT CAVOK 01/M02 Q1031=
EGKB 201850Z 07007KT CAVOK 01/M02 Q1031=
EGKB 201820Z 07009KT CAVOK 01/M02 Q1031=
EGKB 201750Z 07008KT CAVOK 01/M02 Q1031=
EGKB 201720Z 07009KT CAVOK 02/M02 Q1031=